MUHG

Frank Pais International Airport

Holguin, Cuba
MUHG 232300Z 2400/2424 12010KT 9000 SCT020 BECMG 2401/2403 VRB03KT BECMG 2413/2415 12010KT
Issued Valid From Valid To
Oct-23 @ 23:00 UTC
(6 hours ago)
Oct-24 @ 00:00 UTC
(5 hours ago)
Oct-25 @ 00:00 UTC
(in 19 hours)
Expired Click to View Oct-24 @ 00:00 to Oct-24 @ 01:00
MUHG 232300Z 2400/2424 12010KT 9000 SCT020
Wind Visibility Clouds
120° at 10 knots 8,996 meters
  • Scattered at 2,000' AGL
Becoming Oct-24 @ 01:00 to Oct-24 @ 13:00
BECMG 2401/2403 VRB03KT
Wind Visibility Clouds
Variable at 3 knots 8,996 meters
  • Scattered at 2,000' AGL
Becoming Oct-24 @ 13:00 to Oct-25 @ 00:00
BECMG 2413/2415 12010KT
Wind Visibility Clouds
120° at 10 knots 8,996 meters
  • Scattered at 2,000' AGL
MUHG 232300Z 2400/2424 12010KT 9000 SCT020 BECMG 2401/2403 VRB03KT BECMG 2413/2415 12010KT
Issued Oct-23 @ 23:00 UTC
(6 hours ago)
Valid From Oct-24 @ 00:00 UTC
(5 hours ago)
Valid To Oct-25 @ 00:00 UTC
(in 19 hours)
Oct-24 @ 00:00 - Oct-24 @ 01:00
Wind Visibility
120° at 10 knots 8,996 meters
Clouds
  • Scattered at 2,000' AGL
Becoming Oct-24 @ 01:00 - Oct-24 @ 13:00
Wind Visibility
Variable at 3 knots 8,996 meters
Clouds
  • Scattered at 2,000' AGL
Becoming Oct-24 @ 13:00 - Oct-25 @ 00:00
Wind Visibility
120° at 10 knots 8,996 meters
Clouds
  • Scattered at 2,000' AGL